Time;durP1;ratioP1;P1;durP2;ratioP2;P2;SDS_P1;SDS_P2;PMS_P1;PMS_P2;Temp;Humidity;BMP_temperature;BMP_pressure;BME280_temperature;BME280_humidity;BME280_pressure;Samples;Min_cycle;Max_cycle;Signal;HPM_P1;HPM_P2
2020/12/26 00:07:53;;;;;;;12.3;7.6;;;;;;;0.67;74.39648;98853.33;;;;
2020/12/26 00:17:50;;;;;;;10.5;7.9;;;;;;;0.59;74.50391;98853.7;;;;
2020/12/26 00:27:48;;;;;;;8.6;6.9;;;;;;;0.49;75.30273;98872.06;;;;
2020/12/26 00:37:46;;;;;;;11.7;7.5;;;;;;;0.52;76.1123;98878.77;;;;
2020/12/26 00:47:44;;;;;;;12.3;8.1;;;;;;;0.36;78.13281;98872.34;;;;
2020/12/26 00:57:42;;;;;;;16.2;10.2;;;;;;;0.35;79.02246;98876.02;;;;
2020/12/26 01:07:39;;;;;;;18.4;16.1;;;;;;;0.36;79.40039;98897;;;;
2020/12/26 01:17:37;;;;;;;16;12;;;;;;;0.32;80.17188;98895.05;;;;
2020/12/26 01:27:35;;;;;;;17.9;11.9;;;;;;;0.21;81.00977;98883.42;;;;
2020/12/26 01:37:34;;;;;;;34.1;18.2;;;;;;;0.17;81.88281;98892.91;;;;
2020/12/26 01:47:30;;;;;;;20.3;14.2;;;;;;;0.19;81.73242;98874.11;;;;
2020/12/26 01:57:28;;;;;;;14.1;10.7;;;;;;;0.06;81.91504;98879.66;;;;
2020/12/26 02:07:25;;;;;;;15.3;12.1;;;;;;;-0.02;83.06641;98873.68;;;;
2020/12/26 02:17:23;;;;;;;15.9;13.7;;;;;;;0;83.125;98868.16;;;;
2020/12/26 02:27:21;;;;;;;17;13.9;;;;;;;-0.01;82.92578;98879.78;;;;
2020/12/26 02:37:18;;;;;;;28.6;16.9;;;;;;;0;83.07031;98876.11;;;;
2020/12/26 02:47:16;;;;;;;20.3;13.7;;;;;;;0;82.85059;98876.89;;;;
2020/12/26 02:57:14;;;;;;;14.7;11.6;;;;;;;-0.06;81.7959;98891.06;;;;
2020/12/26 03:07:12;;;;;;;15.5;11.6;;;;;;;-0.09;82.01074;98896.83;;;;
2020/12/26 03:17:09;;;;;;;13.5;9.8;;;;;;;-0.05;82.3252;98913.88;;;;
2020/12/26 03:27:07;;;;;;;18.9;10.8;;;;;;;-0.12;82.3877;98923.79;;;;
2020/12/26 03:37:05;;;;;;;15.9;10.8;;;;;;;-0.04;81.57813;98922.64;;;;
2020/12/26 03:47:02;;;;;;;13.2;10.7;;;;;;;-0.08;80.88965;98940.84;;;;
2020/12/26 03:57:00;;;;;;;15.6;9.8;;;;;;;-0.21;81.13867;98943.69;;;;
2020/12/26 04:07:00;;;;;;;13.4;8.5;;;;;;;-0.17;81.36719;98955.44;;;;
2020/12/26 04:16:56;;;;;;;16.4;11.1;;;;;;;-0.24;81.28809;98954.74;;;;
2020/12/26 04:26:53;;;;;;;20.8;10.1;;;;;;;-0.18;81.39844;98945.91;;;;
2020/12/26 04:36:51;;;;;;;12.3;9.6;;;;;;;-0.19;81.30859;98951.42;;;;
2020/12/26 04:46:49;;;;;;;14.1;9.6;;;;;;;-0.23;81.14648;98963.5;;;;
2020/12/26 04:56:46;;;;;;;13.7;8.2;;;;;;;-0.23;80.67383;98976.73;;;;
2020/12/26 05:06:44;;;;;;;11.3;8.2;;;;;;;-0.26;80.5918;98983.3;;;;
2020/12/26 05:16:42;;;;;;;14.2;9.6;;;;;;;-0.28;79.52246;98980.09;;;;
2020/12/26 05:26:39;;;;;;;12;7.7;;;;;;;-0.38;79.97656;98990.41;;;;
2020/12/26 05:36:37;;;;;;;11.8;7.9;;;;;;;-0.47;80.48535;98988.31;;;;
2020/12/26 05:46:35;;;;;;;11.3;8.1;;;;;;;-0.44;81.33789;98999.27;;;;
2020/12/26 05:56:32;;;;;;;14.4;11;;;;;;;-0.41;81.47266;99005.94;;;;
2020/12/26 06:06:30;;;;;;;9.3;6.8;;;;;;;-0.36;81.93555;99009.54;;;;
2020/12/26 06:16:28;;;;;;;13.1;8.7;;;;;;;-0.32;83.08398;99025.78;;;;
2020/12/26 06:26:25;;;;;;;16.2;10.6;;;;;;;-0.38;83.73242;99038.06;;;;
2020/12/26 06:36:23;;;;;;;24.5;11.9;;;;;;;-0.24;83.91211;99065.16;;;;
2020/12/26 06:46:21;;;;;;;12.7;9.9;;;;;;;-0.35;84.07813;99077.36;;;;
2020/12/26 06:56:19;;;;;;;16;11.7;;;;;;;-0.26;84.1709;99099.02;;;;
2020/12/26 07:06:16;;;;;;;15.4;12.8;;;;;;;-0.24;83.95605;99089;;;;
2020/12/26 07:16:14;;;;;;;18.8;14.2;;;;;;;-0.25;83.92188;99098.81;;;;
2020/12/26 07:26:11;;;;;;;15.7;12.2;;;;;;;-0.16;83.44531;99109.88;;;;
2020/12/26 07:36:09;;;;;;;16.5;11.2;;;;;;;-0.02;82.76855;99124.55;;;;
2020/12/26 07:46:06;;;;;;;27.5;14.6;;;;;;;-0.01;82.48633;99115.58;;;;
2020/12/26 07:56:04;;;;;;;19.7;13.5;;;;;;;0.2;81.82324;99120.36;;;;
2020/12/26 08:06:02;;;;;;;21.3;13.9;;;;;;;0.13;81.98438;99124.95;;;;
2020/12/26 08:16:05;;;;;;;19.4;14.7;;;;;;;0.13;81.67578;99135.55;;;;
2020/12/26 08:25:57;;;;;;;17.9;12.6;;;;;;;0.21;80.66895;99145.81;;;;
2020/12/26 08:35:57;;;;;;;26.4;16.2;;;;;;;0.25;80.18262;99156.77;;;;
2020/12/26 08:45:53;;;;;;;18.3;13.5;;;;;;;0.37;79.52148;99173.52;;;;
2020/12/26 08:55:50;;;;;;;13.7;11.9;;;;;;;0.3;79.9502;99184.23;;;;
2020/12/26 09:05:48;;;;;;;20.1;13.2;;;;;;;0.14;82.0957;99186.72;;;;
2020/12/26 09:15:46;;;;;;;21.3;14.7;;;;;;;0.19;81.73242;99192.13;;;;
2020/12/26 09:25:43;;;;;;;15.2;11.7;;;;;;;0.06;83.50879;99192.33;;;;
2020/12/26 09:35:41;;;;;;;17.1;12.7;;;;;;;-0.03;84.86621;99197.11;;;;
2020/12/26 09:45:39;;;;;;;17.6;13;;;;;;;0.03;84.26172;99204.19;;;;
2020/12/26 09:55:37;;;;;;;24.3;18.2;;;;;;;0.38;82.75781;99196.36;;;;
2020/12/26 10:05:34;;;;;;;22.3;16.6;;;;;;;0.72;80.74316;99184.19;;;;
2020/12/26 10:15:32;;;;;;;18.5;11.4;;;;;;;0.78;79.47852;99205.3;;;;
2020/12/26 10:25:30;;;;;;;20.8;14.1;;;;;;;0.61;79.13672;99201.7;;;;
2020/12/26 10:35:28;;;;;;;24.2;16;;;;;;;0.85;79.73242;99198.05;;;;
2020/12/26 10:45:25;;;;;;;22.3;14.1;;;;;;;1.03;79.71094;99199.79;;;;
2020/12/26 10:55:23;;;;;;;24.3;16.5;;;;;;;1.11;76.37207;99180.84;;;;
2020/12/26 11:05:21;;;;;;;11.7;7.6;;;;;;;0.93;73.7041;99179.14;;;;
2020/12/26 11:15:19;;;;;;;12.5;8.4;;;;;;;0.92;72.1543;99196.09;;;;
2020/12/26 11:25:17;;;;;;;13.6;7.9;;;;;;;0.91;71.80078;99202.42;;;;
2020/12/26 11:35:14;;;;;;;18.7;15.3;;;;;;;0.89;72.28223;99187.78;;;;
2020/12/26 11:45:12;;;;;;;14.3;9.3;;;;;;;0.96;71.97461;99186.64;;;;
2020/12/26 11:55:11;;;;;;;19.1;15;;;;;;;0.89;71.4541;99193.09;;;;
2020/12/26 12:05:09;;;;;;;14.3;9.9;;;;;;;0.91;71.27051;99205.08;;;;
2020/12/26 12:15:06;;;;;;;16.6;11.2;;;;;;;0.88;70.93359;99200.23;;;;
2020/12/26 12:25:04;;;;;;;16.1;10.8;;;;;;;0.94;70.64355;99207.27;;;;
2020/12/26 12:35:02;;;;;;;13.3;8.8;;;;;;;1.03;71.06738;99205.09;;;;
2020/12/26 12:45:01;;;;;;;12;9;;;;;;;0.93;69.48145;99204.87;;;;
2020/12/26 12:54:57;;;;;;;17;9.7;;;;;;;0.82;69.87305;99214.43;;;;
2020/12/26 13:04:57;;;;;;;15.2;10;;;;;;;0.48;72.58691;99239.04;;;;
2020/12/26 13:14:53;;;;;;;19;12.6;;;;;;;0.37;72.65625;99242.45;;;;
2020/12/26 13:24:51;;;;;;;21.3;15.6;;;;;;;0.46;71.73535;99236.59;;;;
2020/12/26 13:34:48;;;;;;;35.8;22.2;;;;;;;0.46;71.1709;99251.7;;;;
2020/12/26 13:44:46;;;;;;;25.7;17;;;;;;;0.46;70.18848;99257;;;;
2020/12/26 13:54:44;;;;;;;22.5;17;;;;;;;0.41;70.21582;99263;;;;
2020/12/26 14:04:42;;;;;;;24.7;18.4;;;;;;;0.49;70.8457;99261.84;;;;
2020/12/26 14:14:39;;;;;;;29.4;18.7;;;;;;;0.38;71.33594;99271.38;;;;
2020/12/26 14:24:37;;;;;;;29.3;17.6;;;;;;;0.37;71.9502;99279.57;;;;
2020/12/26 14:34:35;;;;;;;33.2;19.1;;;;;;;0.28;71.99023;99275.59;;;;
2020/12/26 14:44:33;;;;;;;31.3;18.8;;;;;;;0.26;71.32617;99280.33;;;;
2020/12/26 14:54:30;;;;;;;26.7;20.6;;;;;;;0.23;71.29883;99273.64;;;;
2020/12/26 15:04:28;;;;;;;30.3;21.3;;;;;;;0.13;71.12695;99276.02;;;;
2020/12/26 15:14:26;;;;;;;31.9;18.8;;;;;;;0.11;70.95703;99290.49;;;;
2020/12/26 15:24:23;;;;;;;33.4;17.9;;;;;;;0.08;71.10645;99301.55;;;;
2020/12/26 15:34:21;;;;;;;32;21.1;;;;;;;0.05;70.78223;99294.04;;;;
2020/12/26 15:44:19;;;;;;;33.6;23.5;;;;;;;-0.01;71.18359;99296.56;;;;
2020/12/26 15:54:17;;;;;;;39.5;28.8;;;;;;;-0.01;71.80957;99306.34;;;;
2020/12/26 16:04:14;;;;;;;38.6;28.9;;;;;;;-0.11;72.37793;99306.88;;;;
2020/12/26 16:14:12;;;;;;;52.5;32.5;;;;;;;-0.25;72.89355;99292.15;;;;
2020/12/26 16:24:10;;;;;;;47.5;32.3;;;;;;;-0.41;73.48242;99303.3;;;;
2020/12/26 16:34:07;;;;;;;39.1;28.6;;;;;;;-0.6;73.51563;99297.19;;;;
2020/12/26 16:44:05;;;;;;;37.4;19.9;;;;;;;-0.98;74.5166;99307.08;;;;
2020/12/26 16:54:03;;;;;;;37.8;26.6;;;;;;;-1.38;75.55566;99309.17;;;;
2020/12/26 17:04:02;;;;;;;31.2;24.6;;;;;;;-1.73;77.5752;99311.39;;;;
2020/12/26 17:13:58;;;;;;;41.9;22.7;;;;;;;-1.93;77.2959;99312.49;;;;
2020/12/26 17:23:55;;;;;;;30.5;22;;;;;;;-2.09;77.81641;99297.94;;;;
2020/12/26 17:33:53;;;;;;;29.9;18.8;;;;;;;-2.29;78.45801;99300.63;;;;
2020/12/26 17:43:50;;;;;;;30.2;18.4;;;;;;;-2.36;78.88281;99289.27;;;;
2020/12/26 17:53:48;;;;;;;26.9;19.5;;;;;;;-2.52;78.79883;99288.91;;;;
2020/12/26 18:03:45;;;;;;;23.7;16.8;;;;;;;-2.62;79.89355;99299.89;;;;
2020/12/26 18:13:43;;;;;;;44.9;26.9;;;;;;;-2.64;79.99902;99304.57;;;;
2020/12/26 18:23:40;;;;;;;21.8;18.5;;;;;;;-2.75;79.80469;99292.81;;;;
2020/12/26 18:33:37;;;;;;;35.1;20.3;;;;;;;-2.81;80.28418;99296.24;;;;
2020/12/26 18:43:35;;;;;;;33.2;18.9;;;;;;;-2.91;80.76758;99298.48;;;;
2020/12/26 18:53:32;;;;;;;28.3;20.6;;;;;;;-2.99;80.98145;99303.98;;;;
2020/12/26 19:03:29;;;;;;;38.2;23;;;;;;;-2.95;81.64551;99318.36;;;;
2020/12/26 19:13:27;;;;;;;31.7;18.4;;;;;;;-2.95;81.78516;99330.75;;;;
2020/12/26 19:23:24;;;;;;;21;16.5;;;;;;;-2.98;81.50684;99328.49;;;;
2020/12/26 19:33:21;;;;;;;21.9;13.1;;;;;;;-2.97;81.18164;99330.13;;;;
2020/12/26 19:43:19;;;;;;;24.5;14.8;;;;;;;-2.91;80.68066;99316.13;;;;
2020/12/26 19:53:16;;;;;;;23.5;14;;;;;;;-2.88;80.00977;99321.8;;;;
2020/12/26 20:03:13;;;;;;;21.6;13.7;;;;;;;-2.79;79.83008;99330.34;;;;
2020/12/26 20:13:11;;;;;;;26.4;16.1;;;;;;;-2.68;79.13965;99320;;;;
2020/12/26 20:23:08;;;;;;;18.8;10.7;;;;;;;-2.62;78.38477;99326.27;;;;
2020/12/26 20:33:05;;;;;;;20.6;12.4;;;;;;;-2.68;78.87793;99316.54;;;;
2020/12/26 20:43:03;;;;;;;20.1;13.7;;;;;;;-2.82;78.96094;99314.92;;;;
2020/12/26 20:53:02;;;;;;;19.5;17.1;;;;;;;-2.84;78.8916;99306.39;;;;
2020/12/26 21:02:58;;;;;;;24.2;15;;;;;;;-2.89;79.1875;99311.48;;;;
2020/12/26 21:12:55;;;;;;;28.9;14.4;;;;;;;-3.05;79.58496;99302.95;;;;
2020/12/26 21:22:54;;;;;;;17.8;11.2;;;;;;;-3.17;79.39941;99301.94;;;;
2020/12/26 21:32:49;;;;;;;34.8;24.5;;;;;;;-3.38;79.9375;99302.11;;;;
2020/12/26 21:42:47;;;;;;;65.1;38.6;;;;;;;-3.71;79.96191;99303.84;;;;
2020/12/26 21:52:44;;;;;;;29.3;15.6;;;;;;;-4.09;80.81543;99303.5;;;;
2020/12/26 22:02:41;;;;;;;30.6;18;;;;;;;-4.18;82.82227;99299.42;;;;
2020/12/26 22:12:38;;;;;;;36.6;19.1;;;;;;;-4.12;82.98535;99285.47;;;;
2020/12/26 22:22:36;;;;;;;20.8;13.2;;;;;;;-4.05;82.75;99275.78;;;;
2020/12/26 22:32:33;;;;;;;17.5;11.7;;;;;;;-4.04;82.58691;99271.34;;;;
2020/12/26 22:42:30;;;;;;;17.5;12.3;;;;;;;-4.16;82.36914;99255.28;;;;
2020/12/26 22:52:27;;;;;;;25.1;10.9;;;;;;;-4.08;82.375;99242.78;;;;
2020/12/26 23:02:24;;;;;;;20.4;12.4;;;;;;;-3.97;81.62109;99232.69;;;;
2020/12/26 23:12:21;;;;;;;17.1;12.5;;;;;;;-4.08;81.50488;99219.09;;;;
2020/12/26 23:22:19;;;;;;;17.5;9.9;;;;;;;-3.96;80.98047;99215.89;;;;
2020/12/26 23:32:16;;;;;;;16.7;10.6;;;;;;;-4.09;81.4043;99204.3;;;;
2020/12/26 23:42:13;;;;;;;12.3;7.2;;;;;;;-3.98;80.43262;99194.2;;;;
2020/12/26 23:52:10;;;;;;;14.3;8.1;;;;;;;-4.05;80.20313;99183.66;;;;
